sensor_id;sensor_type;location;lat;lon;timestamp;P1;durP1;ratioP1;P2;durP2;ratioP2
38529;SDS011;24301;54.332;48.386;2023-12-22T00:00:01;7.40;;;5.70;;
38529;SDS011;24301;54.332;48.386;2023-12-22T00:02:31;7.93;;;5.10;;
38529;SDS011;24301;54.332;48.386;2023-12-22T00:04:57;7.53;;;4.53;;
38529;SDS011;24301;54.332;48.386;2023-12-22T00:07:23;7.43;;;5.63;;
38529;SDS011;24301;54.332;48.386;2023-12-22T00:09:49;7.70;;;4.77;;
38529;SDS011;24301;54.332;48.386;2023-12-22T00:12:15;7.80;;;4.93;;
38529;SDS011;24301;54.332;48.386;2023-12-22T00:14:41;8.40;;;5.43;;
38529;SDS011;24301;54.332;48.386;2023-12-22T00:17:07;5.70;;;4.93;;
38529;SDS011;24301;54.332;48.386;2023-12-22T00:19:33;9.83;;;6.23;;
38529;SDS011;24301;54.332;48.386;2023-12-22T00:21:59;8.97;;;6.00;;
38529;SDS011;24301;54.332;48.386;2023-12-22T00:24:25;8.60;;;6.13;;
38529;SDS011;24301;54.332;48.386;2023-12-22T00:26:51;9.50;;;6.13;;
38529;SDS011;24301;54.332;48.386;2023-12-22T00:29:17;8.33;;;6.30;;
38529;SDS011;24301;54.332;48.386;2023-12-22T00:31:42;7.70;;;6.00;;
38529;SDS011;24301;54.332;48.386;2023-12-22T00:34:08;8.77;;;6.80;;
38529;SDS011;24301;54.332;48.386;2023-12-22T00:36:34;7.40;;;5.33;;
38529;SDS011;24301;54.332;48.386;2023-12-22T00:39:00;7.20;;;5.60;;
38529;SDS011;24301;54.332;48.386;2023-12-22T00:41:26;9.23;;;6.83;;
38529;SDS011;24301;54.332;48.386;2023-12-22T00:43:52;11.33;;;7.13;;
38529;SDS011;24301;54.332;48.386;2023-12-22T00:46:18;10.10;;;6.80;;
38529;SDS011;24301;54.332;48.386;2023-12-22T00:48:45;9.37;;;6.10;;
38529;SDS011;24301;54.332;48.386;2023-12-22T00:51:11;8.20;;;7.07;;
38529;SDS011;24301;54.332;48.386;2023-12-22T00:53:37;10.07;;;7.10;;
38529;SDS011;24301;54.332;48.386;2023-12-22T00:56:03;9.77;;;6.77;;
38529;SDS011;24301;54.332;48.386;2023-12-22T00:58:30;11.77;;;7.03;;
38529;SDS011;24301;54.332;48.386;2023-12-22T01:00:56;9.90;;;7.40;;
38529;SDS011;24301;54.332;48.386;2023-12-22T01:03:22;11.90;;;7.80;;
38529;SDS011;24301;54.332;48.386;2023-12-22T01:05:48;9.33;;;7.10;;
38529;SDS011;24301;54.332;48.386;2023-12-22T01:08:13;11.63;;;7.23;;
38529;SDS011;24301;54.332;48.386;2023-12-22T01:10:39;12.00;;;8.40;;
38529;SDS011;24301;54.332;48.386;2023-12-22T01:13:05;11.47;;;8.00;;
38529;SDS011;24301;54.332;48.386;2023-12-22T01:15:31;11.10;;;7.70;;
38529;SDS011;24301;54.332;48.386;2023-12-22T01:17:57;9.83;;;6.50;;
38529;SDS011;24301;54.332;48.386;2023-12-22T01:20:23;9.73;;;6.23;;
38529;SDS011;24301;54.332;48.386;2023-12-22T01:22:49;14.03;;;7.90;;
38529;SDS011;24301;54.332;48.386;2023-12-22T01:25:15;12.60;;;7.60;;
38529;SDS011;24301;54.332;48.386;2023-12-22T01:27:41;10.30;;;7.17;;
38529;SDS011;24301;54.332;48.386;2023-12-22T01:30:07;9.83;;;5.90;;
38529;SDS011;24301;54.332;48.386;2023-12-22T01:32:34;8.63;;;5.77;;
38529;SDS011;24301;54.332;48.386;2023-12-22T01:35:02;8.83;;;7.27;;
38529;SDS011;24301;54.332;48.386;2023-12-22T01:37:38;9.17;;;5.63;;
38529;SDS011;24301;54.332;48.386;2023-12-22T01:40:04;8.60;;;6.03;;
38529;SDS011;24301;54.332;48.386;2023-12-22T01:42:31;9.57;;;6.60;;
38529;SDS011;24301;54.332;48.386;2023-12-22T01:44:57;8.53;;;5.93;;
38529;SDS011;24301;54.332;48.386;2023-12-22T01:47:23;7.90;;;5.93;;
38529;SDS011;24301;54.332;48.386;2023-12-22T01:49:50;7.80;;;6.23;;
38529;SDS011;24301;54.332;48.386;2023-12-22T01:52:16;8.33;;;6.23;;
38529;SDS011;24301;54.332;48.386;2023-12-22T01:54:43;8.00;;;5.30;;
38529;SDS011;24301;54.332;48.386;2023-12-22T01:57:09;8.60;;;5.53;;
38529;SDS011;24301;54.332;48.386;2023-12-22T01:59:39;9.87;;;6.23;;
38529;SDS011;24301;54.332;48.386;2023-12-22T02:02:05;9.80;;;6.37;;
38529;SDS011;24301;54.332;48.386;2023-12-22T02:04:32;7.67;;;5.23;;
38529;SDS011;24301;54.332;48.386;2023-12-22T02:06:58;7.23;;;5.13;;
38529;SDS011;24301;54.332;48.386;2023-12-22T02:09:27;7.07;;;5.40;;
38529;SDS011;24301;54.332;48.386;2023-12-22T02:11:53;6.30;;;4.83;;
38529;SDS011;24301;54.332;48.386;2023-12-22T02:14:19;6.83;;;4.90;;
38529;SDS011;24301;54.332;48.386;2023-12-22T02:16:52;7.53;;;4.83;;
38529;SDS011;24301;54.332;48.386;2023-12-22T02:19:37;8.97;;;4.83;;
38529;SDS011;24301;54.332;48.386;2023-12-22T02:22:08;7.43;;;4.43;;
38529;SDS011;24301;54.332;48.386;2023-12-22T02:24:35;6.60;;;4.93;;
38529;SDS011;24301;54.332;48.386;2023-12-22T02:30:02;8.13;;;4.97;;
38529;SDS011;24301;54.332;48.386;2023-12-22T02:32:34;6.43;;;4.27;;
38529;SDS011;24301;54.332;48.386;2023-12-22T02:35:03;7.10;;;5.67;;
38529;SDS011;24301;54.332;48.386;2023-12-22T02:37:33;7.30;;;5.63;;
38529;SDS011;24301;54.332;48.386;2023-12-22T02:40:01;5.93;;;4.07;;
38529;SDS011;24301;54.332;48.386;2023-12-22T02:42:30;5.73;;;3.93;;
38529;SDS011;24301;54.332;48.386;2023-12-22T02:44:58;8.23;;;4.90;;
38529;SDS011;24301;54.332;48.386;2023-12-22T02:47:24;7.90;;;4.87;;
38529;SDS011;24301;54.332;48.386;2023-12-22T02:49:50;7.40;;;5.40;;
38529;SDS011;24301;54.332;48.386;2023-12-22T02:52:16;8.67;;;5.37;;
38529;SDS011;24301;54.332;48.386;2023-12-22T02:54:42;8.07;;;5.63;;
38529;SDS011;24301;54.332;48.386;2023-12-22T02:57:08;11.63;;;5.67;;
38529;SDS011;24301;54.332;48.386;2023-12-22T02:59:34;8.17;;;5.67;;
38529;SDS011;24301;54.332;48.386;2023-12-22T03:02:00;8.10;;;5.43;;
38529;SDS011;24301;54.332;48.386;2023-12-22T03:04:25;6.80;;;4.77;;
38529;SDS011;24301;54.332;48.386;2023-12-22T03:06:51;7.20;;;5.57;;
38529;SDS011;24301;54.332;48.386;2023-12-22T03:09:17;8.77;;;6.40;;
38529;SDS011;24301;54.332;48.386;2023-12-22T03:11:43;9.10;;;6.33;;
38529;SDS011;24301;54.332;48.386;2023-12-22T03:14:09;9.17;;;7.00;;
38529;SDS011;24301;54.332;48.386;2023-12-22T03:16:35;13.57;;;7.17;;
38529;SDS011;24301;54.332;48.386;2023-12-22T03:19:01;21.37;;;8.30;;
38529;SDS011;24301;54.332;48.386;2023-12-22T03:21:27;43.03;;;10.13;;
38529;SDS011;24301;54.332;48.386;2023-12-22T03:23:53;25.53;;;9.73;;
38529;SDS011;24301;54.332;48.386;2023-12-22T03:26:19;18.17;;;8.17;;
38529;SDS011;24301;54.332;48.386;2023-12-22T03:28:45;46.27;;;12.47;;
38529;SDS011;24301;54.332;48.386;2023-12-22T03:31:11;18.70;;;8.87;;
38529;SDS011;24301;54.332;48.386;2023-12-22T03:33:37;13.80;;;8.93;;
38529;SDS011;24301;54.332;48.386;2023-12-22T03:36:03;13.50;;;8.30;;
38529;SDS011;24301;54.332;48.386;2023-12-22T03:38:29;12.10;;;8.20;;
38529;SDS011;24301;54.332;48.386;2023-12-22T03:40:55;16.23;;;9.73;;
38529;SDS011;24301;54.332;48.386;2023-12-22T03:43:21;12.47;;;8.33;;
38529;SDS011;24301;54.332;48.386;2023-12-22T03:45:46;10.87;;;7.10;;
38529;SDS011;24301;54.332;48.386;2023-12-22T03:48:12;12.70;;;7.17;;
38529;SDS011;24301;54.332;48.386;2023-12-22T03:50:38;11.23;;;7.67;;
38529;SDS011;24301;54.332;48.386;2023-12-22T03:53:04;12.23;;;8.70;;
38529;SDS011;24301;54.332;48.386;2023-12-22T03:55:30;11.33;;;6.93;;
38529;SDS011;24301;54.332;48.386;2023-12-22T03:57:56;10.87;;;8.27;;
38529;SDS011;24301;54.332;48.386;2023-12-22T04:00:22;10.80;;;7.70;;
38529;SDS011;24301;54.332;48.386;2023-12-22T04:02:48;12.43;;;8.17;;
38529;SDS011;24301;54.332;48.386;2023-12-22T04:05:13;9.93;;;6.40;;
38529;SDS011;24301;54.332;48.386;2023-12-22T04:07:39;11.03;;;7.60;;
38529;SDS011;24301;54.332;48.386;2023-12-22T04:10:05;11.17;;;7.27;;
38529;SDS011;24301;54.332;48.386;2023-12-22T04:12:32;11.30;;;7.63;;
38529;SDS011;24301;54.332;48.386;2023-12-22T04:14:58;8.73;;;7.10;;
38529;SDS011;24301;54.332;48.386;2023-12-22T04:17:24;8.50;;;6.07;;
38529;SDS011;24301;54.332;48.386;2023-12-22T04:19:50;11.00;;;6.60;;
38529;SDS011;24301;54.332;48.386;2023-12-22T04:22:15;8.43;;;6.67;;
38529;SDS011;24301;54.332;48.386;2023-12-22T04:24:41;11.27;;;8.10;;
38529;SDS011;24301;54.332;48.386;2023-12-22T04:27:07;10.17;;;7.07;;
38529;SDS011;24301;54.332;48.386;2023-12-22T04:29:33;12.07;;;7.17;;
38529;SDS011;24301;54.332;48.386;2023-12-22T04:31:59;9.57;;;7.13;;
38529;SDS011;24301;54.332;48.386;2023-12-22T04:34:25;11.77;;;6.37;;
38529;SDS011;24301;54.332;48.386;2023-12-22T04:36:51;12.80;;;7.50;;
38529;SDS011;24301;54.332;48.386;2023-12-22T04:39:17;11.50;;;7.53;;
38529;SDS011;24301;54.332;48.386;2023-12-22T04:41:43;11.33;;;7.70;;
38529;SDS011;24301;54.332;48.386;2023-12-22T04:44:09;9.13;;;6.53;;
38529;SDS011;24301;54.332;48.386;2023-12-22T04:46:35;8.70;;;6.07;;
38529;SDS011;24301;54.332;48.386;2023-12-22T04:49:03;11.57;;;7.13;;
38529;SDS011;24301;54.332;48.386;2023-12-22T04:51:29;8.97;;;5.83;;
38529;SDS011;24301;54.332;48.386;2023-12-22T04:53:55;9.50;;;6.60;;
38529;SDS011;24301;54.332;48.386;2023-12-22T04:56:21;9.77;;;7.23;;
38529;SDS011;24301;54.332;48.386;2023-12-22T04:58:47;11.27;;;7.93;;
38529;SDS011;24301;54.332;48.386;2023-12-22T05:01:13;14.13;;;10.93;;
38529;SDS011;24301;54.332;48.386;2023-12-22T05:03:39;15.53;;;11.57;;
38529;SDS011;24301;54.332;48.386;2023-12-22T05:06:05;12.63;;;9.03;;
38529;SDS011;24301;54.332;48.386;2023-12-22T05:08:30;13.03;;;8.73;;
38529;SDS011;24301;54.332;48.386;2023-12-22T05:10:56;10.83;;;8.00;;
38529;SDS011;24301;54.332;48.386;2023-12-22T05:13:23;12.93;;;9.80;;
38529;SDS011;24301;54.332;48.386;2023-12-22T05:15:49;10.47;;;8.27;;
38529;SDS011;24301;54.332;48.386;2023-12-22T05:18:14;11.73;;;8.47;;
38529;SDS011;24301;54.332;48.386;2023-12-22T05:20:40;14.13;;;9.73;;
38529;SDS011;24301;54.332;48.386;2023-12-22T05:23:06;12.27;;;9.47;;
38529;SDS011;24301;54.332;48.386;2023-12-22T05:25:32;13.40;;;8.90;;
38529;SDS011;24301;54.332;48.386;2023-12-22T05:27:58;13.33;;;9.90;;
38529;SDS011;24301;54.332;48.386;2023-12-22T05:30:24;14.80;;;9.10;;
38529;SDS011;24301;54.332;48.386;2023-12-22T05:32:50;13.07;;;7.73;;
38529;SDS011;24301;54.332;48.386;2023-12-22T05:38:49;13.57;;;9.00;;
38529;SDS011;24301;54.332;48.386;2023-12-22T05:41:14;13.23;;;9.97;;
38529;SDS011;24301;54.332;48.386;2023-12-22T05:43:40;23.97;;;12.60;;
38529;SDS011;24301;54.332;48.386;2023-12-22T05:46:06;13.57;;;9.63;;
38529;SDS011;24301;54.332;48.386;2023-12-22T05:48:33;17.07;;;11.80;;
38529;SDS011;24301;54.332;48.386;2023-12-22T05:50:59;15.40;;;11.10;;
38529;SDS011;24301;54.332;48.386;2023-12-22T05:53:27;18.47;;;10.50;;
38529;SDS011;24301;54.332;48.386;2023-12-22T05:55:53;16.27;;;7.63;;
38529;SDS011;24301;54.332;48.386;2023-12-22T05:58:19;14.37;;;10.10;;
38529;SDS011;24301;54.332;48.386;2023-12-22T06:00:45;14.13;;;9.73;;
38529;SDS011;24301;54.332;48.386;2023-12-22T06:03:11;15.90;;;10.40;;
38529;SDS011;24301;54.332;48.386;2023-12-22T06:05:37;13.93;;;9.33;;
38529;SDS011;24301;54.332;48.386;2023-12-22T06:08:04;19.40;;;11.00;;
38529;SDS011;24301;54.332;48.386;2023-12-22T06:10:30;16.57;;;9.80;;
38529;SDS011;24301;54.332;48.386;2023-12-22T06:12:56;17.60;;;9.37;;
38529;SDS011;24301;54.332;48.386;2023-12-22T06:15:23;14.90;;;9.23;;
38529;SDS011;24301;54.332;48.386;2023-12-22T06:17:50;14.93;;;9.23;;
38529;SDS011;24301;54.332;48.386;2023-12-22T06:20:19;14.23;;;9.23;;
38529;SDS011;24301;54.332;48.386;2023-12-22T06:22:45;12.30;;;9.27;;
38529;SDS011;24301;54.332;48.386;2023-12-22T06:25:11;12.53;;;9.30;;
38529;SDS011;24301;54.332;48.386;2023-12-22T06:27:37;15.43;;;9.20;;
38529;SDS011;24301;54.332;48.386;2023-12-22T06:30:04;13.73;;;8.80;;
38529;SDS011;24301;54.332;48.386;2023-12-22T06:32:31;14.87;;;9.00;;
38529;SDS011;24301;54.332;48.386;2023-12-22T06:34:58;13.53;;;8.87;;
38529;SDS011;24301;54.332;48.386;2023-12-22T06:37:26;13.13;;;8.33;;
38529;SDS011;24301;54.332;48.386;2023-12-22T06:39:52;11.93;;;8.67;;
38529;SDS011;24301;54.332;48.386;2023-12-22T06:42:17;13.77;;;9.03;;
38529;SDS011;24301;54.332;48.386;2023-12-22T06:44:43;18.33;;;9.57;;
38529;SDS011;24301;54.332;48.386;2023-12-22T06:47:09;12.23;;;8.77;;
38529;SDS011;24301;54.332;48.386;2023-12-22T06:49:35;14.80;;;8.43;;
38529;SDS011;24301;54.332;48.386;2023-12-22T06:52:01;13.17;;;8.63;;
38529;SDS011;24301;54.332;48.386;2023-12-22T06:54:27;15.53;;;9.50;;
38529;SDS011;24301;54.332;48.386;2023-12-22T06:56:54;12.23;;;9.37;;
38529;SDS011;24301;54.332;48.386;2023-12-22T06:59:20;13.23;;;9.43;;
38529;SDS011;24301;54.332;48.386;2023-12-22T07:01:46;15.63;;;8.37;;
38529;SDS011;24301;54.332;48.386;2023-12-22T07:04:12;15.80;;;8.67;;
38529;SDS011;24301;54.332;48.386;2023-12-22T07:06:38;11.33;;;8.10;;
38529;SDS011;24301;54.332;48.386;2023-12-22T07:11:38;10.93;;;8.17;;
38529;SDS011;24301;54.332;48.386;2023-12-22T07:14:05;12.33;;;7.97;;
38529;SDS011;24301;54.332;48.386;2023-12-22T07:16:32;15.57;;;7.93;;
38529;SDS011;24301;54.332;48.386;2023-12-22T07:18:58;12.93;;;8.83;;
38529;SDS011;24301;54.332;48.386;2023-12-22T07:21:24;13.73;;;8.23;;
38529;SDS011;24301;54.332;48.386;2023-12-22T07:23:50;11.73;;;7.70;;
38529;SDS011;24301;54.332;48.386;2023-12-22T07:26:16;8.70;;;7.27;;
38529;SDS011;24301;54.332;48.386;2023-12-22T07:28:46;11.23;;;8.00;;
38529;SDS011;24301;54.332;48.386;2023-12-22T07:31:13;10.73;;;6.97;;
38529;SDS011;24301;54.332;48.386;2023-12-22T07:33:40;13.63;;;8.27;;
38529;SDS011;24301;54.332;48.386;2023-12-22T07:36:07;10.93;;;7.77;;
38529;SDS011;24301;54.332;48.386;2023-12-22T07:38:33;11.10;;;7.37;;
38529;SDS011;24301;54.332;48.386;2023-12-22T07:40:59;11.07;;;6.53;;
38529;SDS011;24301;54.332;48.386;2023-12-22T07:43:25;14.57;;;8.77;;
38529;SDS011;24301;54.332;48.386;2023-12-22T07:45:51;12.33;;;6.80;;
38529;SDS011;24301;54.332;48.386;2023-12-22T07:48:19;10.07;;;6.53;;
38529;SDS011;24301;54.332;48.386;2023-12-22T07:50:46;9.37;;;6.30;;
38529;SDS011;24301;54.332;48.386;2023-12-22T07:53:12;9.73;;;6.80;;
38529;SDS011;24301;54.332;48.386;2023-12-22T07:55:38;8.87;;;6.80;;
38529;SDS011;24301;54.332;48.386;2023-12-22T07:58:04;8.57;;;6.73;;
38529;SDS011;24301;54.332;48.386;2023-12-22T08:00:31;9.73;;;7.03;;
38529;SDS011;24301;54.332;48.386;2023-12-22T08:02:57;11.60;;;7.40;;
38529;SDS011;24301;54.332;48.386;2023-12-22T08:05:23;9.47;;;6.87;;
38529;SDS011;24301;54.332;48.386;2023-12-22T08:07:50;7.47;;;6.07;;
38529;SDS011;24301;54.332;48.386;2023-12-22T08:10:16;9.07;;;6.20;;
38529;SDS011;24301;54.332;48.386;2023-12-22T08:12:42;7.70;;;5.60;;
38529;SDS011;24301;54.332;48.386;2023-12-22T08:15:08;8.00;;;5.67;;
38529;SDS011;24301;54.332;48.386;2023-12-22T08:17:39;8.43;;;7.03;;
38529;SDS011;24301;54.332;48.386;2023-12-22T08:20:15;8.30;;;5.10;;
38529;SDS011;24301;54.332;48.386;2023-12-22T08:22:42;6.57;;;5.90;;
38529;SDS011;24301;54.332;48.386;2023-12-22T08:25:09;6.70;;;5.13;;
38529;SDS011;24301;54.332;48.386;2023-12-22T08:27:35;8.10;;;5.80;;
38529;SDS011;24301;54.332;48.386;2023-12-22T08:30:01;7.07;;;5.07;;
38529;SDS011;24301;54.332;48.386;2023-12-22T08:32:29;7.57;;;5.20;;
38529;SDS011;24301;54.332;48.386;2023-12-22T08:34:55;8.87;;;5.50;;
38529;SDS011;24301;54.332;48.386;2023-12-22T08:37:21;11.87;;;7.10;;
38529;SDS011;24301;54.332;48.386;2023-12-22T08:39:47;9.20;;;5.93;;
38529;SDS011;24301;54.332;48.386;2023-12-22T08:42:14;8.57;;;5.33;;
38529;SDS011;24301;54.332;48.386;2023-12-22T08:44:40;10.23;;;6.93;;
38529;SDS011;24301;54.332;48.386;2023-12-22T08:47:06;11.23;;;6.73;;
38529;SDS011;24301;54.332;48.386;2023-12-22T08:49:31;15.87;;;11.50;;
38529;SDS011;24301;54.332;48.386;2023-12-22T08:51:57;10.40;;;6.93;;
38529;SDS011;24301;54.332;48.386;2023-12-22T08:54:23;10.37;;;7.70;;
38529;SDS011;24301;54.332;48.386;2023-12-22T08:56:49;12.83;;;7.40;;
38529;SDS011;24301;54.332;48.386;2023-12-22T08:59:15;25.03;;;8.70;;
38529;SDS011;24301;54.332;48.386;2023-12-22T09:01:41;20.07;;;7.37;;
38529;SDS011;24301;54.332;48.386;2023-12-22T09:04:09;28.90;;;8.50;;
38529;SDS011;24301;54.332;48.386;2023-12-22T09:06:36;12.73;;;7.97;;
38529;SDS011;24301;54.332;48.386;2023-12-22T09:09:03;26.77;;;8.43;;
38529;SDS011;24301;54.332;48.386;2023-12-22T09:11:29;19.23;;;7.57;;
38529;SDS011;24301;54.332;48.386;2023-12-22T09:13:55;10.03;;;7.80;;
38529;SDS011;24301;54.332;48.386;2023-12-22T09:16:22;12.03;;;6.80;;
38529;SDS011;24301;54.332;48.386;2023-12-22T09:18:48;33.57;;;9.47;;
38529;SDS011;24301;54.332;48.386;2023-12-22T09:21:15;29.87;;;10.03;;
38529;SDS011;24301;54.332;48.386;2023-12-22T09:23:46;24.33;;;9.57;;
38529;SDS011;24301;54.332;48.386;2023-12-22T09:26:15;35.23;;;10.93;;
38529;SDS011;24301;54.332;48.386;2023-12-22T09:28:41;12.53;;;8.00;;
38529;SDS011;24301;54.332;48.386;2023-12-22T09:31:08;15.17;;;8.37;;
38529;SDS011;24301;54.332;48.386;2023-12-22T09:33:35;14.70;;;9.23;;
38529;SDS011;24301;54.332;48.386;2023-12-22T09:36:01;18.57;;;9.57;;
38529;SDS011;24301;54.332;48.386;2023-12-22T09:38:27;13.87;;;8.97;;
38529;SDS011;24301;54.332;48.386;2023-12-22T09:40:55;17.63;;;10.40;;
38529;SDS011;24301;54.332;48.386;2023-12-22T09:43:24;19.03;;;10.17;;
38529;SDS011;24301;54.332;48.386;2023-12-22T09:45:50;22.87;;;10.33;;
38529;SDS011;24301;54.332;48.386;2023-12-22T09:48:17;19.47;;;11.23;;
38529;SDS011;24301;54.332;48.386;2023-12-22T09:50:46;41.63;;;13.67;;
38529;SDS011;24301;54.332;48.386;2023-12-22T09:53:12;25.10;;;11.57;;
38529;SDS011;24301;54.332;48.386;2023-12-22T09:55:42;49.87;;;14.60;;
38529;SDS011;24301;54.332;48.386;2023-12-22T09:58:12;171.97;;;20.93;;
38529;SDS011;24301;54.332;48.386;2023-12-22T10:00:40;151.30;;;21.23;;
38529;SDS011;24301;54.332;48.386;2023-12-22T10:03:07;175.60;;;24.53;;
38529;SDS011;24301;54.332;48.386;2023-12-22T10:05:36;242.90;;;28.10;;
38529;SDS011;24301;54.332;48.386;2023-12-22T10:08:03;308.87;;;35.20;;
38529;SDS011;24301;54.332;48.386;2023-12-22T10:10:30;280.13;;;30.87;;
38529;SDS011;24301;54.332;48.386;2023-12-22T10:12:56;162.43;;;22.13;;
38529;SDS011;24301;54.332;48.386;2023-12-22T10:15:24;158.20;;;21.30;;
38529;SDS011;24301;54.332;48.386;2023-12-22T10:17:54;143.40;;;19.67;;
38529;SDS011;24301;54.332;48.386;2023-12-22T10:20:20;69.83;;;15.13;;
38529;SDS011;24301;54.332;48.386;2023-12-22T10:22:46;236.00;;;31.27;;
38529;SDS011;24301;54.332;48.386;2023-12-22T10:25:19;119.47;;;16.57;;
38529;SDS011;24301;54.332;48.386;2023-12-22T10:27:45;387.05;;;47.72;;
38529;SDS011;24301;54.332;48.386;2023-12-22T10:30:11;353.83;;;38.87;;
38529;SDS011;24301;54.332;48.386;2023-12-22T10:32:41;449.33;;;48.40;;
38529;SDS011;24301;54.332;48.386;2023-12-22T10:35:09;577.90;;;64.13;;
38529;SDS011;24301;54.332;48.386;2023-12-22T10:37:35;558.30;;;61.27;;
38529;SDS011;24301;54.332;48.386;2023-12-22T10:40:05;399.03;;;43.13;;
38529;SDS011;24301;54.332;48.386;2023-12-22T10:42:32;415.77;;;49.67;;
38529;SDS011;24301;54.332;48.386;2023-12-22T10:44:58;331.20;;;34.67;;
38529;SDS011;24301;54.332;48.386;2023-12-22T10:47:24;472.03;;;60.07;;
38529;SDS011;24301;54.332;48.386;2023-12-22T10:49:50;498.20;;;64.80;;
38529;SDS011;24301;54.332;48.386;2023-12-22T10:52:17;371.83;;;45.03;;
38529;SDS011;24301;54.332;48.386;2023-12-22T10:54:43;531.70;;;64.97;;
38529;SDS011;24301;54.332;48.386;2023-12-22T10:57:10;433.33;;;50.80;;
38529;SDS011;24301;54.332;48.386;2023-12-22T10:59:38;511.87;;;67.30;;
38529;SDS011;24301;54.332;48.386;2023-12-22T11:02:12;457.27;;;48.63;;
38529;SDS011;24301;54.332;48.386;2023-12-22T11:04:42;367.97;;;46.80;;
38529;SDS011;24301;54.332;48.386;2023-12-22T11:07:20;500.50;;;68.03;;
38529;SDS011;24301;54.332;48.386;2023-12-22T11:09:51;300.47;;;35.27;;
38529;SDS011;24301;54.332;48.386;2023-12-22T11:12:19;329.10;;;38.33;;
38529;SDS011;24301;54.332;48.386;2023-12-22T11:14:46;182.50;;;27.00;;
38529;SDS011;24301;54.332;48.386;2023-12-22T11:17:21;81.67;;;16.43;;
38529;SDS011;24301;54.332;48.386;2023-12-22T11:19:52;50.57;;;14.97;;
38529;SDS011;24301;54.332;48.386;2023-12-22T11:22:19;46.90;;;12.83;;
38529;SDS011;24301;54.332;48.386;2023-12-22T11:24:47;30.40;;;12.33;;
38529;SDS011;24301;54.332;48.386;2023-12-22T11:27:17;17.03;;;10.17;;
38529;SDS011;24301;54.332;48.386;2023-12-22T11:29:48;15.97;;;8.73;;
38529;SDS011;24301;54.332;48.386;2023-12-22T11:32:16;18.67;;;10.00;;
38529;SDS011;24301;54.332;48.386;2023-12-22T11:34:44;18.23;;;11.23;;
38529;SDS011;24301;54.332;48.386;2023-12-22T11:37:11;15.83;;;7.90;;
38529;SDS011;24301;54.332;48.386;2023-12-22T11:39:41;19.07;;;9.67;;
38529;SDS011;24301;54.332;48.386;2023-12-22T11:42:08;12.27;;;8.00;;
38529;SDS011;24301;54.332;48.386;2023-12-22T11:44:38;16.17;;;9.07;;
38529;SDS011;24301;54.332;48.386;2023-12-22T11:47:05;15.67;;;8.60;;
38529;SDS011;24301;54.332;48.386;2023-12-22T11:49:35;19.20;;;9.27;;
38529;SDS011;24301;54.332;48.386;2023-12-22T11:59:54;14.70;;;6.70;;
38529;SDS011;24301;54.332;48.386;2023-12-22T12:02:20;10.50;;;5.93;;
38529;SDS011;24301;54.332;48.386;2023-12-22T12:04:50;10.80;;;5.43;;
38529;SDS011;24301;54.332;48.386;2023-12-22T12:10:08;9.50;;;5.63;;
38529;SDS011;24301;54.332;48.386;2023-12-22T12:12:37;7.53;;;4.23;;
38529;SDS011;24301;54.332;48.386;2023-12-22T12:15:07;8.13;;;4.60;;
38529;SDS011;24301;54.332;48.386;2023-12-22T12:17:43;7.87;;;4.70;;
38529;SDS011;24301;54.332;48.386;2023-12-22T12:20:10;6.87;;;3.93;;
38529;SDS011;24301;54.332;48.386;2023-12-22T12:22:37;7.27;;;4.17;;
38529;SDS011;24301;54.332;48.386;2023-12-22T12:25:10;8.00;;;3.75;;
38529;SDS011;24301;54.332;48.386;2023-12-22T12:27:36;5.10;;;3.50;;
38529;SDS011;24301;54.332;48.386;2023-12-22T12:30:13;8.20;;;2.90;;
38529;SDS011;24301;54.332;48.386;2023-12-22T12:32:43;4.90;;;2.80;;
38529;SDS011;24301;54.332;48.386;2023-12-22T12:35:12;3.70;;;2.60;;
38529;SDS011;24301;54.332;48.386;2023-12-22T12:37:38;5.27;;;2.87;;
38529;SDS011;24301;54.332;48.386;2023-12-22T12:40:06;4.30;;;2.83;;
38529;SDS011;24301;54.332;48.386;2023-12-22T12:42:35;5.50;;;3.63;;
38529;SDS011;24301;54.332;48.386;2023-12-22T12:45:04;6.03;;;3.40;;
38529;SDS011;24301;54.332;48.386;2023-12-22T12:47:34;8.93;;;3.73;;
38529;SDS011;24301;54.332;48.386;2023-12-22T12:50:00;5.37;;;3.83;;
38529;SDS011;24301;54.332;48.386;2023-12-22T12:52:26;8.40;;;3.60;;
38529;SDS011;24301;54.332;48.386;2023-12-22T12:54:52;8.57;;;3.93;;
38529;SDS011;24301;54.332;48.386;2023-12-22T12:57:19;8.90;;;3.70;;
38529;SDS011;24301;54.332;48.386;2023-12-22T12:59:47;6.57;;;5.00;;
38529;SDS011;24301;54.332;48.386;2023-12-22T13:02:17;7.97;;;4.80;;
38529;SDS011;24301;54.332;48.386;2023-12-22T13:04:43;7.40;;;4.13;;
38529;SDS011;24301;54.332;48.386;2023-12-22T13:07:09;11.30;;;4.90;;
38529;SDS011;24301;54.332;48.386;2023-12-22T13:09:38;7.57;;;3.97;;
38529;SDS011;24301;54.332;48.386;2023-12-22T13:12:05;9.50;;;4.70;;
38529;SDS011;24301;54.332;48.386;2023-12-22T13:14:31;9.70;;;4.30;;
38529;SDS011;24301;54.332;48.386;2023-12-22T13:16:57;6.73;;;4.53;;
38529;SDS011;24301;54.332;48.386;2023-12-22T13:19:24;9.67;;;5.23;;
38529;SDS011;24301;54.332;48.386;2023-12-22T13:21:54;4.80;;;3.20;;
38529;SDS011;24301;54.332;48.386;2023-12-22T13:24:21;4.53;;;3.50;;
38529;SDS011;24301;54.332;48.386;2023-12-22T13:26:58;7.17;;;3.90;;
38529;SDS011;24301;54.332;48.386;2023-12-22T13:29:29;7.47;;;3.30;;
38529;SDS011;24301;54.332;48.386;2023-12-22T13:31:55;6.07;;;3.47;;
38529;SDS011;24301;54.332;48.386;2023-12-22T13:34:23;5.77;;;3.50;;
38529;SDS011;24301;54.332;48.386;2023-12-22T13:36:50;7.03;;;3.27;;
38529;SDS011;24301;54.332;48.386;2023-12-22T13:39:16;9.00;;;3.20;;
38529;SDS011;24301;54.332;48.386;2023-12-22T13:41:42;3.63;;;2.40;;
38529;SDS011;24301;54.332;48.386;2023-12-22T13:44:12;5.57;;;2.83;;
38529;SDS011;24301;54.332;48.386;2023-12-22T13:46:38;5.60;;;3.60;;
38529;SDS011;24301;54.332;48.386;2023-12-22T13:49:08;3.43;;;2.27;;
38529;SDS011;24301;54.332;48.386;2023-12-22T13:51:38;3.57;;;2.47;;
38529;SDS011;24301;54.332;48.386;2023-12-22T13:54:10;6.23;;;2.60;;
38529;SDS011;24301;54.332;48.386;2023-12-22T13:56:37;3.53;;;2.50;;
38529;SDS011;24301;54.332;48.386;2023-12-22T13:59:06;3.97;;;2.40;;
38529;SDS011;24301;54.332;48.386;2023-12-22T14:01:32;4.57;;;2.60;;
38529;SDS011;24301;54.332;48.386;2023-12-22T14:03:59;5.73;;;2.23;;
38529;SDS011;24301;54.332;48.386;2023-12-22T14:06:26;2.93;;;2.30;;
38529;SDS011;24301;54.332;48.386;2023-12-22T14:08:53;4.07;;;2.70;;
38529;SDS011;24301;54.332;48.386;2023-12-22T14:11:20;3.70;;;2.47;;
38529;SDS011;24301;54.332;48.386;2023-12-22T14:13:46;4.83;;;3.07;;
38529;SDS011;24301;54.332;48.386;2023-12-22T14:16:12;6.33;;;2.50;;
38529;SDS011;24301;54.332;48.386;2023-12-22T14:18:41;6.47;;;3.70;;
38529;SDS011;24301;54.332;48.386;2023-12-22T14:21:08;5.73;;;3.93;;
38529;SDS011;24301;54.332;48.386;2023-12-22T14:23:34;6.17;;;4.00;;
38529;SDS011;24301;54.332;48.386;2023-12-22T14:26:00;8.53;;;4.10;;
38529;SDS011;24301;54.332;48.386;2023-12-22T14:28:26;7.30;;;3.63;;
38529;SDS011;24301;54.332;48.386;2023-12-22T14:30:53;6.17;;;3.00;;
38529;SDS011;24301;54.332;48.386;2023-12-22T14:33:19;6.43;;;4.43;;
38529;SDS011;24301;54.332;48.386;2023-12-22T14:35:45;7.50;;;4.00;;
38529;SDS011;24301;54.332;48.386;2023-12-22T14:38:11;7.17;;;4.53;;
38529;SDS011;24301;54.332;48.386;2023-12-22T14:40:37;7.23;;;3.70;;